Aeroporto :
LOGIN :

Iscrizione | Disclaimer

   EN    FR    IT 

 










Sommario :    VFR   VFR Marginale   IFR   IFR Intensivo   IFR Molto Intensivo
Visibilità : 
Base nubi : 
>= 8 km
>= 3000ft
5 / 8 km
1000 / 3000 ft
1500m / 5 km
500 / 1000 ft
800 / 1500m
200 / 500 ft
< 800m
< 200 ft
Simboli :   Temporali  Nebbia  Neve Forte  Precipitazioni Forti  Vento > 20 kt
SIGMETs :   Varie  Temporali  Ghiacco  Turbolenza  Onda orograficha  Ceneri Vulcaniche






- Altitudine del aeroporto : 614 ft
- Codice IATA : CRL


EBCI - Charleroi

ULTIMO METAR :
  • 051220Z 21008KT 170V280 CAVOK 27/06 Q1017 NOSIG

METARs OBSOLETI :
  • 051150Z 21009KT 160V240 CAVOK 26/05 Q1017 NOSIG
  • 051120Z 18008KT 140V220 CAVOK 26/06 Q1017 NOSIG
  • 051050Z 21009KT 160V260 CAVOK 26/06 Q1017 NOSIG
  • 051020Z 19011KT 150V210 CAVOK 25/06 Q1017 NOSIG
  • 050950Z 19012KT 160V220 CAVOK 25/06 Q1017 NOSIG

TAF TAF EBCI
Valido dal 05 a 12 ore il 06 a 18 ore UTC


051114Z 0512/0618 20009KT CAVOK



MetMap, La meteo Aeronautica in un colpo d'occhio ! - Copyright ORBIFLY Dicembre 2007 - Disclaimer

ORBIFLY MET'MAP TEAM :

Programmazione e sviluppo : Alexandra Zaïnal
Concezione : Baudouin d'Aumeries
Aiuto per la programmazione : Marc-Olivier Méhu
Supporto tecnico e logistico : Manuel Goepfert
Aiuto per la traduzione : Arnaldo La Scala

Contatto : metmap@orbifly.com




FONTI E CREDITI :

   NOAA